sensor_id;sensor_type;location;lat;lon;timestamp;P1;durP1;ratioP1;P2;durP2;ratioP2
8881;SDS011;4477;48.736;9.176;2023-02-13T00:01:14;125.07;;;65.77;;
8881;SDS011;4477;48.736;9.176;2023-02-13T00:03:41;141.63;;;73.53;;
8881;SDS011;4477;48.736;9.176;2023-02-13T00:06:08;162.03;;;88.53;;
8881;SDS011;4477;48.736;9.176;2023-02-13T00:08:35;132.20;;;74.30;;
8881;SDS011;4477;48.736;9.176;2023-02-13T00:11:02;134.60;;;74.27;;
8881;SDS011;4477;48.736;9.176;2023-02-13T00:13:29;140.10;;;72.87;;
8881;SDS011;4477;48.736;9.176;2023-02-13T00:15:58;195.50;;;88.93;;
8881;SDS011;4477;48.736;9.176;2023-02-13T00:18:26;137.37;;;69.97;;
8881;SDS011;4477;48.736;9.176;2023-02-13T00:20:57;171.67;;;80.70;;
8881;SDS011;4477;48.736;9.176;2023-02-13T00:23:24;183.73;;;81.37;;
8881;SDS011;4477;48.736;9.176;2023-02-13T00:25:51;154.83;;;74.70;;
8881;SDS011;4477;48.736;9.176;2023-02-13T00:28:18;190.13;;;82.43;;
8881;SDS011;4477;48.736;9.176;2023-02-13T00:30:44;151.53;;;72.07;;
8881;SDS011;4477;48.736;9.176;2023-02-13T00:33:12;154.57;;;74.37;;
8881;SDS011;4477;48.736;9.176;2023-02-13T00:35:39;163.80;;;74.13;;
8881;SDS011;4477;48.736;9.176;2023-02-13T00:38:06;141.63;;;67.40;;
8881;SDS011;4477;48.736;9.176;2023-02-13T00:40:33;142.67;;;65.17;;
8881;SDS011;4477;48.736;9.176;2023-02-13T00:43:00;129.63;;;62.13;;
8881;SDS011;4477;48.736;9.176;2023-02-13T00:45:26;142.53;;;63.33;;
8881;SDS011;4477;48.736;9.176;2023-02-13T00:47:53;158.23;;;66.87;;
8881;SDS011;4477;48.736;9.176;2023-02-13T00:50:21;173.87;;;68.97;;
8881;SDS011;4477;48.736;9.176;2023-02-13T00:52:48;169.63;;;71.40;;
8881;SDS011;4477;48.736;9.176;2023-02-13T00:55:15;142.70;;;63.93;;
8881;SDS011;4477;48.736;9.176;2023-02-13T00:57:42;181.53;;;73.87;;
8881;SDS011;4477;48.736;9.176;2023-02-13T01:00:09;176.53;;;72.30;;
8881;SDS011;4477;48.736;9.176;2023-02-13T01:02:36;145.67;;;69.33;;
8881;SDS011;4477;48.736;9.176;2023-02-13T01:05:03;167.17;;;71.40;;
8881;SDS011;4477;48.736;9.176;2023-02-13T01:07:32;259.27;;;86.37;;
8881;SDS011;4477;48.736;9.176;2023-02-13T01:09:58;182.13;;;75.20;;
8881;SDS011;4477;48.736;9.176;2023-02-13T01:12:25;165.43;;;70.83;;
8881;SDS011;4477;48.736;9.176;2023-02-13T01:14:52;211.00;;;77.63;;
8881;SDS011;4477;48.736;9.176;2023-02-13T01:17:20;205.73;;;78.00;;
8881;SDS011;4477;48.736;9.176;2023-02-13T01:19:46;167.40;;;72.57;;
8881;SDS011;4477;48.736;9.176;2023-02-13T01:22:13;207.27;;;80.30;;
8881;SDS011;4477;48.736;9.176;2023-02-13T01:24:42;199.17;;;81.30;;
8881;SDS011;4477;48.736;9.176;2023-02-13T01:27:08;182.70;;;78.77;;
8881;SDS011;4477;48.736;9.176;2023-02-13T01:29:35;224.60;;;86.83;;
8881;SDS011;4477;48.736;9.176;2023-02-13T01:32:02;185.53;;;79.77;;
8881;SDS011;4477;48.736;9.176;2023-02-13T01:34:29;151.23;;;72.33;;
8881;SDS011;4477;48.736;9.176;2023-02-13T01:36:56;152.27;;;74.83;;
8881;SDS011;4477;48.736;9.176;2023-02-13T01:39:23;177.90;;;79.77;;
8881;SDS011;4477;48.736;9.176;2023-02-13T01:41:51;191.57;;;80.93;;
8881;SDS011;4477;48.736;9.176;2023-02-13T01:47:16;188.77;;;83.87;;
8881;SDS011;4477;48.736;9.176;2023-02-13T01:49:47;192.93;;;81.13;;
8881;SDS011;4477;48.736;9.176;2023-02-13T01:52:15;202.00;;;81.37;;
8881;SDS011;4477;48.736;9.176;2023-02-13T01:54:43;161.13;;;74.17;;
8881;SDS011;4477;48.736;9.176;2023-02-13T01:57:13;199.63;;;80.23;;
8881;SDS011;4477;48.736;9.176;2023-02-13T01:59:43;285.93;;;94.90;;
8881;SDS011;4477;48.736;9.176;2023-02-13T02:02:13;203.77;;;83.03;;
8881;SDS011;4477;48.736;9.176;2023-02-13T02:04:40;236.77;;;88.80;;
8881;SDS011;4477;48.736;9.176;2023-02-13T02:07:09;230.23;;;86.77;;
8881;SDS011;4477;48.736;9.176;2023-02-13T02:09:40;207.87;;;83.13;;
8881;SDS011;4477;48.736;9.176;2023-02-13T02:12:10;185.97;;;79.10;;
8881;SDS011;4477;48.736;9.176;2023-02-13T02:14:45;215.80;;;83.73;;
8881;SDS011;4477;48.736;9.176;2023-02-13T02:17:14;232.50;;;87.27;;
8881;SDS011;4477;48.736;9.176;2023-02-13T02:19:43;236.83;;;87.73;;
8881;SDS011;4477;48.736;9.176;2023-02-13T02:25:28;260.43;;;93.30;;
8881;SDS011;4477;48.736;9.176;2023-02-13T02:28:34;233.80;;;90.73;;
8881;SDS011;4477;48.736;9.176;2023-02-13T02:34:28;201.47;;;84.33;;
8881;SDS011;4477;48.736;9.176;2023-02-13T02:37:03;211.03;;;85.47;;
8881;SDS011;4477;48.736;9.176;2023-02-13T02:39:41;215.63;;;87.20;;
8881;SDS011;4477;48.736;9.176;2023-02-13T02:42:17;166.80;;;74.27;;
8881;SDS011;4477;48.736;9.176;2023-02-13T02:44:54;150.67;;;67.13;;
8881;SDS011;4477;48.736;9.176;2023-02-13T02:47:30;138.40;;;62.37;;
8881;SDS011;4477;48.736;9.176;2023-02-13T02:50:22;146.27;;;62.73;;
8881;SDS011;4477;48.736;9.176;2023-02-13T02:52:58;153.47;;;65.10;;
8881;SDS011;4477;48.736;9.176;2023-02-13T02:55:35;135.00;;;61.07;;
8881;SDS011;4477;48.736;9.176;2023-02-13T02:58:08;133.47;;;62.00;;
8881;SDS011;4477;48.736;9.176;2023-02-13T03:00:56;132.97;;;60.50;;
8881;SDS011;4477;48.736;9.176;2023-02-13T03:03:48;143.03;;;63.80;;
8881;SDS011;4477;48.736;9.176;2023-02-13T03:06:34;149.87;;;63.30;;
8881;SDS011;4477;48.736;9.176;2023-02-13T03:09:05;140.77;;;63.67;;
8881;SDS011;4477;48.736;9.176;2023-02-13T03:11:54;153.37;;;64.03;;
8881;SDS011;4477;48.736;9.176;2023-02-13T03:14:39;137.40;;;62.30;;
8881;SDS011;4477;48.736;9.176;2023-02-13T03:17:08;151.27;;;62.33;;
8881;SDS011;4477;48.736;9.176;2023-02-13T03:20:00;133.13;;;59.97;;
8881;SDS011;4477;48.736;9.176;2023-02-13T03:22:58;137.77;;;61.57;;
8881;SDS011;4477;48.736;9.176;2023-02-13T03:25:34;156.63;;;64.70;;
8881;SDS011;4477;48.736;9.176;2023-02-13T03:28:09;158.97;;;67.40;;
8881;SDS011;4477;48.736;9.176;2023-02-13T03:30:59;139.33;;;61.33;;
8881;SDS011;4477;48.736;9.176;2023-02-13T03:33:35;136.43;;;62.43;;
8881;SDS011;4477;48.736;9.176;2023-02-13T03:36:06;141.17;;;61.57;;
8881;SDS011;4477;48.736;9.176;2023-02-13T03:38:54;150.03;;;65.23;;
8881;SDS011;4477;48.736;9.176;2023-02-13T03:41:24;141.93;;;64.37;;
8881;SDS011;4477;48.736;9.176;2023-02-13T03:43:55;139.13;;;65.07;;
8881;SDS011;4477;48.736;9.176;2023-02-13T03:46:24;151.87;;;68.70;;
8881;SDS011;4477;48.736;9.176;2023-02-13T03:51:28;129.67;;;62.27;;
8881;SDS011;4477;48.736;9.176;2023-02-13T03:54:02;139.37;;;65.03;;
8881;SDS011;4477;48.736;9.176;2023-02-13T03:56:32;125.77;;;60.77;;
8881;SDS011;4477;48.736;9.176;2023-02-13T03:59:20;141.13;;;67.20;;
8881;SDS011;4477;48.736;9.176;2023-02-13T04:01:52;139.07;;;66.00;;
8881;SDS011;4477;48.736;9.176;2023-02-13T04:04:25;134.73;;;65.20;;
8881;SDS011;4477;48.736;9.176;2023-02-13T04:07:01;135.17;;;64.23;;
8881;SDS011;4477;48.736;9.176;2023-02-13T04:09:30;147.17;;;67.93;;
8881;SDS011;4477;48.736;9.176;2023-02-13T04:12:00;146.53;;;69.93;;
8881;SDS011;4477;48.736;9.176;2023-02-13T04:14:33;137.67;;;63.70;;
8881;SDS011;4477;48.736;9.176;2023-02-13T04:17:05;143.17;;;63.13;;
8881;SDS011;4477;48.736;9.176;2023-02-13T04:19:36;114.70;;;57.90;;
8881;SDS011;4477;48.736;9.176;2023-02-13T04:22:05;128.87;;;63.07;;
8881;SDS011;4477;48.736;9.176;2023-02-13T04:24:32;135.90;;;64.93;;
8881;SDS011;4477;48.736;9.176;2023-02-13T04:26:58;133.60;;;62.30;;
8881;SDS011;4477;48.736;9.176;2023-02-13T04:29:25;143.97;;;64.33;;
8881;SDS011;4477;48.736;9.176;2023-02-13T04:31:52;147.57;;;67.33;;
8881;SDS011;4477;48.736;9.176;2023-02-13T04:34:19;153.57;;;65.47;;
8881;SDS011;4477;48.736;9.176;2023-02-13T04:36:46;142.30;;;63.23;;
8881;SDS011;4477;48.736;9.176;2023-02-13T04:39:14;146.17;;;67.90;;
8881;SDS011;4477;48.736;9.176;2023-02-13T04:41:41;129.47;;;62.33;;
8881;SDS011;4477;48.736;9.176;2023-02-13T04:44:08;148.73;;;65.17;;
8881;SDS011;4477;48.736;9.176;2023-02-13T04:46:35;151.33;;;68.10;;
8881;SDS011;4477;48.736;9.176;2023-02-13T04:49:01;169.47;;;69.63;;
8881;SDS011;4477;48.736;9.176;2023-02-13T04:51:28;141.67;;;63.93;;
8881;SDS011;4477;48.736;9.176;2023-02-13T04:53:55;149.43;;;66.17;;
8881;SDS011;4477;48.736;9.176;2023-02-13T04:56:23;125.17;;;61.20;;
8881;SDS011;4477;48.736;9.176;2023-02-13T04:58:50;131.93;;;64.27;;
8881;SDS011;4477;48.736;9.176;2023-02-13T05:01:17;136.67;;;63.03;;
8881;SDS011;4477;48.736;9.176;2023-02-13T05:03:43;191.70;;;73.03;;
8881;SDS011;4477;48.736;9.176;2023-02-13T05:06:10;140.27;;;63.03;;
8881;SDS011;4477;48.736;9.176;2023-02-13T05:08:37;155.10;;;67.97;;
8881;SDS011;4477;48.736;9.176;2023-02-13T05:11:05;152.83;;;68.30;;
8881;SDS011;4477;48.736;9.176;2023-02-13T05:13:33;135.03;;;62.97;;
8881;SDS011;4477;48.736;9.176;2023-02-13T05:16:00;149.07;;;65.60;;
8881;SDS011;4477;48.736;9.176;2023-02-13T05:18:27;130.33;;;59.57;;
8881;SDS011;4477;48.736;9.176;2023-02-13T05:20:54;160.73;;;66.33;;
8881;SDS011;4477;48.736;9.176;2023-02-13T05:23:38;153.40;;;68.27;;
8881;SDS011;4477;48.736;9.176;2023-02-13T05:26:05;155.93;;;66.83;;
8881;SDS011;4477;48.736;9.176;2023-02-13T05:28:33;144.97;;;63.23;;
8881;SDS011;4477;48.736;9.176;2023-02-13T05:31:17;142.23;;;62.77;;
8881;SDS011;4477;48.736;9.176;2023-02-13T05:33:44;145.17;;;64.70;;
8881;SDS011;4477;48.736;9.176;2023-02-13T05:36:12;129.80;;;60.70;;
8881;SDS011;4477;48.736;9.176;2023-02-13T05:38:39;161.80;;;69.93;;
8881;SDS011;4477;48.736;9.176;2023-02-13T05:41:06;142.60;;;64.57;;
8881;SDS011;4477;48.736;9.176;2023-02-13T05:43:34;137.97;;;62.60;;
8881;SDS011;4477;48.736;9.176;2023-02-13T05:46:02;143.10;;;65.27;;
8881;SDS011;4477;48.736;9.176;2023-02-13T05:48:29;151.77;;;66.83;;
8881;SDS011;4477;48.736;9.176;2023-02-13T05:50:56;130.67;;;61.80;;
8881;SDS011;4477;48.736;9.176;2023-02-13T05:53:23;133.10;;;64.73;;
8881;SDS011;4477;48.736;9.176;2023-02-13T05:55:50;130.37;;;61.90;;
8881;SDS011;4477;48.736;9.176;2023-02-13T05:58:17;122.73;;;62.53;;
8881;SDS011;4477;48.736;9.176;2023-02-13T06:00:45;143.20;;;71.87;;
8881;SDS011;4477;48.736;9.176;2023-02-13T06:03:14;143.20;;;70.07;;
8881;SDS011;4477;48.736;9.176;2023-02-13T06:05:41;157.00;;;75.23;;
8881;SDS011;4477;48.736;9.176;2023-02-13T06:08:07;181.40;;;74.93;;
8881;SDS011;4477;48.736;9.176;2023-02-13T06:10:34;173.70;;;76.47;;
8881;SDS011;4477;48.736;9.176;2023-02-13T06:13:01;142.03;;;68.13;;
8881;SDS011;4477;48.736;9.176;2023-02-13T06:15:28;131.50;;;67.00;;
8881;SDS011;4477;48.736;9.176;2023-02-13T06:17:56;156.83;;;74.63;;
8881;SDS011;4477;48.736;9.176;2023-02-13T06:20:23;132.60;;;67.47;;
8881;SDS011;4477;48.736;9.176;2023-02-13T06:22:50;136.47;;;68.43;;
8881;SDS011;4477;48.736;9.176;2023-02-13T06:25:17;162.13;;;74.00;;
8881;SDS011;4477;48.736;9.176;2023-02-13T06:27:45;144.10;;;70.40;;
8881;SDS011;4477;48.736;9.176;2023-02-13T06:30:12;137.00;;;68.47;;
8881;SDS011;4477;48.736;9.176;2023-02-13T06:32:40;124.93;;;65.30;;
8881;SDS011;4477;48.736;9.176;2023-02-13T06:35:08;149.60;;;72.50;;
8881;SDS011;4477;48.736;9.176;2023-02-13T06:37:35;156.07;;;73.33;;
8881;SDS011;4477;48.736;9.176;2023-02-13T06:40:03;160.97;;;77.03;;
8881;SDS011;4477;48.736;9.176;2023-02-13T06:42:31;155.13;;;74.97;;
8881;SDS011;4477;48.736;9.176;2023-02-13T06:44:57;162.83;;;78.03;;
8881;SDS011;4477;48.736;9.176;2023-02-13T06:47:24;177.80;;;80.03;;
8881;SDS011;4477;48.736;9.176;2023-02-13T06:49:51;169.23;;;82.30;;
8881;SDS011;4477;48.736;9.176;2023-02-13T06:52:20;171.60;;;79.20;;
8881;SDS011;4477;48.736;9.176;2023-02-13T06:54:47;174.17;;;82.63;;
8881;SDS011;4477;48.736;9.176;2023-02-13T06:57:14;164.33;;;79.10;;
8881;SDS011;4477;48.736;9.176;2023-02-13T06:59:42;173.27;;;82.07;;
8881;SDS011;4477;48.736;9.176;2023-02-13T07:02:09;157.30;;;79.50;;
8881;SDS011;4477;48.736;9.176;2023-02-13T07:04:36;177.37;;;83.53;;
8881;SDS011;4477;48.736;9.176;2023-02-13T07:07:03;172.87;;;84.57;;
8881;SDS011;4477;48.736;9.176;2023-02-13T07:09:32;173.10;;;85.77;;
8881;SDS011;4477;48.736;9.176;2023-02-13T07:12:01;183.57;;;88.37;;
8881;SDS011;4477;48.736;9.176;2023-02-13T07:14:28;181.07;;;91.47;;
8881;SDS011;4477;48.736;9.176;2023-02-13T07:16:55;181.30;;;91.80;;
8881;SDS011;4477;48.736;9.176;2023-02-13T07:19:23;194.47;;;94.63;;
8881;SDS011;4477;48.736;9.176;2023-02-13T07:21:50;196.80;;;94.07;;
8881;SDS011;4477;48.736;9.176;2023-02-13T07:24:17;185.90;;;91.10;;
8881;SDS011;4477;48.736;9.176;2023-02-13T07:26:45;182.30;;;90.00;;
8881;SDS011;4477;48.736;9.176;2023-02-13T07:29:12;207.20;;;93.63;;
8881;SDS011;4477;48.736;9.176;2023-02-13T07:31:39;206.37;;;93.77;;
8881;SDS011;4477;48.736;9.176;2023-02-13T07:34:07;179.40;;;85.07;;
8881;SDS011;4477;48.736;9.176;2023-02-13T07:36:34;170.57;;;83.90;;
8881;SDS011;4477;48.736;9.176;2023-02-13T07:39:01;176.03;;;82.13;;
8881;SDS011;4477;48.736;9.176;2023-02-13T07:41:28;173.37;;;83.50;;
8881;SDS011;4477;48.736;9.176;2023-02-13T07:43:56;178.83;;;89.00;;
8881;SDS011;4477;48.736;9.176;2023-02-13T07:46:23;177.53;;;83.17;;
8881;SDS011;4477;48.736;9.176;2023-02-13T07:48:50;170.97;;;84.50;;
8881;SDS011;4477;48.736;9.176;2023-02-13T07:51:18;188.10;;;92.28;;
8881;SDS011;4477;48.736;9.176;2023-02-13T07:53:49;159.10;;;79.93;;
8881;SDS011;4477;48.736;9.176;2023-02-13T07:56:16;186.37;;;87.03;;
8881;SDS011;4477;48.736;9.176;2023-02-13T07:58:43;169.33;;;80.77;;
8881;SDS011;4477;48.736;9.176;2023-02-13T08:01:12;164.80;;;80.20;;
8881;SDS011;4477;48.736;9.176;2023-02-13T08:03:40;172.90;;;82.63;;
8881;SDS011;4477;48.736;9.176;2023-02-13T08:06:07;164.20;;;81.63;;
8881;SDS011;4477;48.736;9.176;2023-02-13T08:08:35;173.57;;;83.60;;
8881;SDS011;4477;48.736;9.176;2023-02-13T08:11:03;164.63;;;80.50;;
8881;SDS011;4477;48.736;9.176;2023-02-13T08:13:57;153.87;;;82.23;;
8881;SDS011;4477;48.736;9.176;2023-02-13T08:16:25;153.30;;;80.17;;
8881;SDS011;4477;48.736;9.176;2023-02-13T08:18:52;155.33;;;75.53;;
8881;SDS011;4477;48.736;9.176;2023-02-13T08:21:19;154.10;;;77.40;;
8881;SDS011;4477;48.736;9.176;2023-02-13T08:23:46;137.60;;;71.13;;
8881;SDS011;4477;48.736;9.176;2023-02-13T08:26:16;120.50;;;64.60;;
8881;SDS011;4477;48.736;9.176;2023-02-13T08:28:43;102.07;;;54.63;;
8881;SDS011;4477;48.736;9.176;2023-02-13T08:31:10;96.93;;;51.87;;
8881;SDS011;4477;48.736;9.176;2023-02-13T08:33:39;91.20;;;50.33;;
8881;SDS011;4477;48.736;9.176;2023-02-13T08:36:06;81.07;;;46.07;;
8881;SDS011;4477;48.736;9.176;2023-02-13T08:38:33;94.03;;;49.57;;
8881;SDS011;4477;48.736;9.176;2023-02-13T08:41:01;72.53;;;43.03;;
8881;SDS011;4477;48.736;9.176;2023-02-13T08:43:28;69.60;;;42.53;;
8881;SDS011;4477;48.736;9.176;2023-02-13T08:45:56;68.27;;;40.43;;
8881;SDS011;4477;48.736;9.176;2023-02-13T08:48:24;61.67;;;39.03;;
8881;SDS011;4477;48.736;9.176;2023-02-13T08:50:52;55.43;;;35.80;;
8881;SDS011;4477;48.736;9.176;2023-02-13T08:53:19;49.43;;;33.57;;
8881;SDS011;4477;48.736;9.176;2023-02-13T08:55:53;48.57;;;33.03;;
8881;SDS011;4477;48.736;9.176;2023-02-13T08:58:20;44.17;;;30.77;;
8881;SDS011;4477;48.736;9.176;2023-02-13T09:00:47;41.53;;;28.30;;
8881;SDS011;4477;48.736;9.176;2023-02-13T09:03:14;37.07;;;26.67;;
8881;SDS011;4477;48.736;9.176;2023-02-13T09:05:42;38.73;;;27.57;;
8881;SDS011;4477;48.736;9.176;2023-02-13T09:08:10;37.80;;;26.73;;
8881;SDS011;4477;48.736;9.176;2023-02-13T09:10:38;35.30;;;25.00;;
8881;SDS011;4477;48.736;9.176;2023-02-13T09:13:05;36.10;;;25.80;;
8881;SDS011;4477;48.736;9.176;2023-02-13T09:15:32;31.83;;;23.63;;
8881;SDS011;4477;48.736;9.176;2023-02-13T09:17:59;29.53;;;22.60;;
8881;SDS011;4477;48.736;9.176;2023-02-13T09:20:26;25.20;;;20.57;;
8881;SDS011;4477;48.736;9.176;2023-02-13T09:22:54;24.70;;;20.00;;
8881;SDS011;4477;48.736;9.176;2023-02-13T09:25:23;23.47;;;18.87;;
8881;SDS011;4477;48.736;9.176;2023-02-13T09:27:50;22.23;;;17.93;;
8881;SDS011;4477;48.736;9.176;2023-02-13T09:30:17;19.87;;;16.67;;
8881;SDS011;4477;48.736;9.176;2023-02-13T09:32:48;17.97;;;15.60;;
8881;SDS011;4477;48.736;9.176;2023-02-13T09:35:15;17.67;;;14.73;;
8881;SDS011;4477;48.736;9.176;2023-02-13T09:37:42;17.07;;;14.80;;
8881;SDS011;4477;48.736;9.176;2023-02-13T09:42:43;19.00;;;14.80;;
8881;SDS011;4477;48.736;9.176;2023-02-13T09:45:11;15.33;;;13.73;;
8881;SDS011;4477;48.736;9.176;2023-02-13T09:47:40;17.57;;;13.63;;
8881;SDS011;4477;48.736;9.176;2023-02-13T09:50:10;15.57;;;13.93;;
8881;SDS011;4477;48.736;9.176;2023-02-13T09:52:38;14.70;;;12.80;;
8881;SDS011;4477;48.736;9.176;2023-02-13T09:55:12;15.20;;;13.60;;
8881;SDS011;4477;48.736;9.176;2023-02-13T09:57:41;14.97;;;13.37;;
8881;SDS011;4477;48.736;9.176;2023-02-13T10:00:14;15.80;;;13.13;;
8881;SDS011;4477;48.736;9.176;2023-02-13T10:02:49;16.07;;;12.70;;
8881;SDS011;4477;48.736;9.176;2023-02-13T10:05:28;15.17;;;13.23;;
8881;SDS011;4477;48.736;9.176;2023-02-13T10:07:59;14.10;;;12.60;;
8881;SDS011;4477;48.736;9.176;2023-02-13T10:10:33;14.30;;;12.03;;
8881;SDS011;4477;48.736;9.176;2023-02-13T10:13:05;13.30;;;12.00;;
8881;SDS011;4477;48.736;9.176;2023-02-13T10:15:38;15.40;;;12.23;;
8881;SDS011;4477;48.736;9.176;2023-02-13T10:18:09;12.83;;;11.53;;
8881;SDS011;4477;48.736;9.176;2023-02-13T10:20:38;15.23;;;11.90;;
8881;SDS011;4477;48.736;9.176;2023-02-13T10:23:12;14.57;;;11.83;;
8881;SDS011;4477;48.736;9.176;2023-02-13T10:25:44;13.57;;;12.17;;
8881;SDS011;4477;48.736;9.176;2023-02-13T10:28:13;13.57;;;11.73;;
8881;SDS011;4477;48.736;9.176;2023-02-13T10:30:45;14.63;;;12.17;;
8881;SDS011;4477;48.736;9.176;2023-02-13T10:33:15;12.77;;;11.33;;
8881;SDS011;4477;48.736;9.176;2023-02-13T10:35:47;15.27;;;11.90;;
8881;SDS011;4477;48.736;9.176;2023-02-13T10:38:17;13.83;;;11.67;;
8881;SDS011;4477;48.736;9.176;2023-02-13T10:40:48;13.90;;;11.30;;
8881;SDS011;4477;48.736;9.176;2023-02-13T10:43:19;13.87;;;12.20;;
8881;SDS011;4477;48.736;9.176;2023-02-13T10:45:53;13.33;;;11.70;;
8881;SDS011;4477;48.736;9.176;2023-02-13T10:48:33;13.40;;;11.03;;
8881;SDS011;4477;48.736;9.176;2023-02-13T10:51:04;12.87;;;11.47;;
8881;SDS011;4477;48.736;9.176;2023-02-13T10:53:41;13.23;;;10.90;;
8881;SDS011;4477;48.736;9.176;2023-02-13T10:56:13;15.80;;;11.50;;
8881;SDS011;4477;48.736;9.176;2023-02-13T10:58:49;11.23;;;9.97;;
8881;SDS011;4477;48.736;9.176;2023-02-13T11:01:23;16.20;;;10.93;;
8881;SDS011;4477;48.736;9.176;2023-02-13T11:03:59;12.77;;;11.07;;
8881;SDS011;4477;48.736;9.176;2023-02-13T11:06:27;13.30;;;9.80;;
8881;SDS011;4477;48.736;9.176;2023-02-13T11:08:55;12.43;;;10.00;;
8881;SDS011;4477;48.736;9.176;2023-02-13T11:11:29;13.23;;;9.87;;
8881;SDS011;4477;48.736;9.176;2023-02-13T11:14:12;10.70;;;9.60;;
8881;SDS011;4477;48.736;9.176;2023-02-13T11:16:42;10.43;;;9.33;;
8881;SDS011;4477;48.736;9.176;2023-02-13T11:19:15;11.23;;;9.20;;
8881;SDS011;4477;48.736;9.176;2023-02-13T11:21:42;10.43;;;9.07;;
8881;SDS011;4477;48.736;9.176;2023-02-13T11:24:16;10.00;;;9.00;;
8881;SDS011;4477;48.736;9.176;2023-02-13T11:26:43;10.20;;;9.10;;
8881;SDS011;4477;48.736;9.176;2023-02-13T11:29:15;11.30;;;8.37;;
8881;SDS011;4477;48.736;9.176;2023-02-13T11:31:47;9.10;;;8.20;;
8881;SDS011;4477;48.736;9.176;2023-02-13T11:34:32;8.90;;;7.60;;
8881;SDS011;4477;48.736;9.176;2023-02-13T11:37:14;11.97;;;7.73;;
8881;SDS011;4477;48.736;9.176;2023-02-13T11:39:42;8.50;;;7.67;;
8881;SDS011;4477;48.736;9.176;2023-02-13T11:42:11;9.63;;;7.33;;
8881;SDS011;4477;48.736;9.176;2023-02-13T11:44:39;8.43;;;7.50;;
8881;SDS011;4477;48.736;9.176;2023-02-13T11:47:08;8.23;;;7.27;;
8881;SDS011;4477;48.736;9.176;2023-02-13T11:49:36;7.73;;;6.87;;
8881;SDS011;4477;48.736;9.176;2023-02-13T11:52:04;10.57;;;7.90;;
8881;SDS011;4477;48.736;9.176;2023-02-13T11:54:32;8.50;;;7.70;;
8881;SDS011;4477;48.736;9.176;2023-02-13T11:57:00;8.67;;;7.60;;
8881;SDS011;4477;48.736;9.176;2023-02-13T11:59:30;9.37;;;7.90;;
8881;SDS011;4477;48.736;9.176;2023-02-13T12:02:00;9.60;;;8.60;;
8881;SDS011;4477;48.736;9.176;2023-02-13T12:04:30;10.10;;;8.23;;
8881;SDS011;4477;48.736;9.176;2023-02-13T12:06:59;8.90;;;7.73;;
8881;SDS011;4477;48.736;9.176;2023-02-13T12:09:28;9.07;;;7.80;;
8881;SDS011;4477;48.736;9.176;2023-02-13T12:11:56;10.23;;;8.20;;
8881;SDS011;4477;48.736;9.176;2023-02-13T12:14:32;9.27;;;8.33;;
8881;SDS011;4477;48.736;9.176;2023-02-13T12:17:04;10.13;;;9.13;;
8881;SDS011;4477;48.736;9.176;2023-02-13T12:19:36;9.73;;;8.57;;
8881;SDS011;4477;48.736;9.176;2023-02-13T12:22:14;9.07;;;8.17;;
8881;SDS011;4477;48.736;9.176;2023-02-13T12:27:47;10.17;;;9.17;;
8881;SDS011;4477;48.736;9.176;2023-02-13T12:30:34;10.20;;;9.07;;
8881;SDS011;4477;48.736;9.176;2023-02-13T12:33:13;9.53;;;8.53;;
8881;SDS011;4477;48.736;9.176;2023-02-13T12:35:54;10.13;;;9.13;;
8881;SDS011;4477;48.736;9.176;2023-02-13T12:38:28;10.40;;;9.40;;
8881;SDS011;4477;48.736;9.176;2023-02-13T12:41:09;10.50;;;9.00;;
8881;SDS011;4477;48.736;9.176;2023-02-13T12:46:33;11.53;;;10.43;;
8881;SDS011;4477;48.736;9.176;2023-02-13T12:49:14;10.47;;;9.47;;
8881;SDS011;4477;48.736;9.176;2023-02-13T12:51:55;12.33;;;11.00;;
8881;SDS011;4477;48.736;9.176;2023-02-13T12:54:32;13.43;;;10.40;;
8881;SDS011;4477;48.736;9.176;2023-02-13T12:57:09;12.57;;;9.60;;
8881;SDS011;4477;48.736;9.176;2023-02-13T12:59:49;10.73;;;9.70;;
8881;SDS011;4477;48.736;9.176;2023-02-13T13:02:37;12.97;;;9.80;;
8881;SDS011;4477;48.736;9.176;2023-02-13T13:05:36;11.63;;;9.67;;
8881;SDS011;4477;48.736;9.176;2023-02-13T13:08:22;12.30;;;9.40;;
8881;SDS011;4477;48.736;9.176;2023-02-13T13:10:59;11.10;;;10.00;;
8881;SDS011;4477;48.736;9.176;2023-02-13T13:13:45;11.63;;;10.53;;
8881;SDS011;4477;48.736;9.176;2023-02-13T13:16:22;13.90;;;11.30;;
8881;SDS011;4477;48.736;9.176;2023-02-13T13:19:00;12.27;;;10.73;;
8881;SDS011;4477;48.736;9.176;2023-02-13T13:21:38;13.20;;;11.00;;
8881;SDS011;4477;48.736;9.176;2023-02-13T13:24:20;12.57;;;10.80;;
8881;SDS011;4477;48.736;9.176;2023-02-13T13:26:53;11.97;;;10.77;;
8881;SDS011;4477;48.736;9.176;2023-02-13T13:29:23;12.73;;;10.67;;
8881;SDS011;4477;48.736;9.176;2023-02-13T13:31:53;11.70;;;10.23;;
8881;SDS011;4477;48.736;9.176;2023-02-13T13:34:23;11.87;;;10.63;;
8881;SDS011;4477;48.736;9.176;2023-02-13T13:36:53;11.43;;;10.17;;
8881;SDS011;4477;48.736;9.176;2023-02-13T13:39:31;12.03;;;10.83;;
8881;SDS011;4477;48.736;9.176;2023-02-13T13:42:10;12.50;;;10.60;;
8881;SDS011;4477;48.736;9.176;2023-02-13T13:44:58;11.50;;;10.40;;
8881;SDS011;4477;48.736;9.176;2023-02-13T13:47:47;13.37;;;11.97;;
8881;SDS011;4477;48.736;9.176;2023-02-13T13:50:26;12.23;;;10.60;;
8881;SDS011;4477;48.736;9.176;2023-02-13T13:53:06;12.10;;;10.90;;
8881;SDS011;4477;48.736;9.176;2023-02-13T13:58:36;12.43;;;11.17;;
8881;SDS011;4477;48.736;9.176;2023-02-13T14:01:15;11.80;;;10.60;;
8881;SDS011;4477;48.736;9.176;2023-02-13T14:03:51;12.03;;;10.67;;
8881;SDS011;4477;48.736;9.176;2023-02-13T14:06:19;11.87;;;10.30;;
8881;SDS011;4477;48.736;9.176;2023-02-13T14:11:38;15.20;;;12.27;;
8881;SDS011;4477;48.736;9.176;2023-02-13T14:20:30;12.30;;;10.87;;
8881;SDS011;4477;48.736;9.176;2023-02-13T14:23:07;11.43;;;10.37;;
8881;SDS011;4477;48.736;9.176;2023-02-13T14:25:42;10.53;;;9.43;;
8881;SDS011;4477;48.736;9.176;2023-02-13T14:28:21;11.10;;;9.97;;
8881;SDS011;4477;48.736;9.176;2023-02-13T14:30:51;11.87;;;10.63;;
8881;SDS011;4477;48.736;9.176;2023-02-13T14:33:29;11.13;;;9.37;;
8881;SDS011;4477;48.736;9.176;2023-02-13T14:35:58;10.17;;;9.20;;
8881;SDS011;4477;48.736;9.176;2023-02-13T14:38:27;9.70;;;8.70;;
8881;SDS011;4477;48.736;9.176;2023-02-13T14:40:55;10.70;;;9.30;;
8881;SDS011;4477;48.736;9.176;2023-02-13T14:43:34;10.50;;;9.50;;
8881;SDS011;4477;48.736;9.176;2023-02-13T14:46:08;11.27;;;10.13;;
8881;SDS011;4477;48.736;9.176;2023-02-13T14:48:44;11.23;;;9.97;;
8881;SDS011;4477;48.736;9.176;2023-02-13T14:51:18;12.37;;;10.57;;
8881;SDS011;4477;48.736;9.176;2023-02-13T14:53:53;12.70;;;11.43;;
8881;SDS011;4477;48.736;9.176;2023-02-13T14:56:23;10.97;;;9.87;;
8881;SDS011;4477;48.736;9.176;2023-02-13T14:58:53;11.27;;;10.07;;
8881;SDS011;4477;48.736;9.176;2023-02-13T15:01:29;11.47;;;9.87;;
8881;SDS011;4477;48.736;9.176;2023-02-13T15:04:00;12.10;;;10.30;;
8881;SDS011;4477;48.736;9.176;2023-02-13T15:06:33;12.33;;;10.23;;
8881;SDS011;4477;48.736;9.176;2023-02-13T15:09:04;11.80;;;10.60;;
8881;SDS011;4477;48.736;9.176;2023-02-13T15:11:42;12.00;;;10.73;;
8881;SDS011;4477;48.736;9.176;2023-02-13T15:14:21;13.00;;;10.20;;
8881;SDS011;4477;48.736;9.176;2023-02-13T15:16:52;11.20;;;10.10;;
8881;SDS011;4477;48.736;9.176;2023-02-13T15:19:22;12.63;;;10.33;;
8881;SDS011;4477;48.736;9.176;2023-02-13T15:21:51;12.00;;;10.23;;
8881;SDS011;4477;48.736;9.176;2023-02-13T15:24:18;12.17;;;10.97;;
8881;SDS011;4477;48.736;9.176;2023-02-13T15:26:52;12.67;;;10.83;;
8881;SDS011;4477;48.736;9.176;2023-02-13T15:29:27;12.63;;;11.30;;
8881;SDS011;4477;48.736;9.176;2023-02-13T15:31:55;12.10;;;10.40;;
8881;SDS011;4477;48.736;9.176;2023-02-13T15:34:23;11.97;;;10.73;;
8881;SDS011;4477;48.736;9.176;2023-02-13T15:36:51;11.60;;;10.40;;
8881;SDS011;4477;48.736;9.176;2023-02-13T15:39:19;12.97;;;11.53;;